Time;durP1;ratioP1;P1;durP2;ratioP2;P2;SDS_P1;SDS_P2;PMS_P1;PMS_P2;Temp;Humidity;BMP_temperature;BMP_pressure;BME280_temperature;BME280_humidity;BME280_pressure;Samples;Min_cycle;Max_cycle;Signal;HPM_P1;HPM_P2
2023/05/06 00:00:59;;;;;;;9.13;5.80;;;;;;;;;;4955258;28;20173;-68
2023/05/06 00:03:24;;;;;;;7.75;5.60;;;;;;;;;;4954232;28;20102;-66
2023/05/06 00:05:50;;;;;;;8.25;5.75;;;;;;;;;;4976924;28;20033;-69
2023/05/06 00:08:15;;;;;;;9.02;5.93;;;;;;;;;;4953254;28;20102;-68
2023/05/06 00:10:41;;;;;;;8.35;5.50;;;;;;;;;;4976725;28;20550;-68
2023/05/06 00:13:07;;;;;;;9.60;6.15;;;;;;;;;;4977680;28;20034;-70
2023/05/06 00:15:33;;;;;;;10.23;6.03;;;;;;;;;;4976786;28;20045;-69
2023/05/06 00:17:59;;;;;;;7.95;5.85;;;;;;;;;;4976857;28;20531;-67
2023/05/06 00:20:26;;;;;;;8.35;6.00;;;;;;;;;;4979786;28;21190;-69
2023/05/06 00:22:51;;;;;;;10.27;6.57;;;;;;;;;;4940177;28;20041;-69
2023/05/06 00:25:17;;;;;;;7.30;5.68;;;;;;;;;;4958023;28;20046;-69
2023/05/06 00:27:42;;;;;;;7.50;5.65;;;;;;;;;;4973333;28;20085;-68
2023/05/06 00:30:08;;;;;;;7.93;5.50;;;;;;;;;;4968138;28;20038;-67
2023/05/06 00:32:34;;;;;;;7.15;5.10;;;;;;;;;;4981157;28;20049;-68
2023/05/06 00:34:59;;;;;;;7.30;5.53;;;;;;;;;;4972359;28;20069;-68
2023/05/06 00:37:24;;;;;;;6.18;5.22;;;;;;;;;;4958482;28;20052;-69
2023/05/06 00:39:50;;;;;;;8.13;5.85;;;;;;;;;;4973188;28;20361;-71
2023/05/06 00:42:15;;;;;;;9.32;6.30;;;;;;;;;;4974064;28;20149;-69
2023/05/06 00:44:40;;;;;;;8.63;5.07;;;;;;;;;;4974340;28;20141;-68
2023/05/06 00:47:06;;;;;;;7.22;5.00;;;;;;;;;;4973213;28;20451;-69
2023/05/06 00:49:32;;;;;;;7.22;5.38;;;;;;;;;;4976301;28;20126;-70
2023/05/06 00:51:58;;;;;;;7.10;5.57;;;;;;;;;;4952936;28;20046;-68
2023/05/06 00:54:25;;;;;;;6.93;5.40;;;;;;;;;;4978156;28;20046;-70
2023/05/06 00:56:51;;;;;;;6.80;5.05;;;;;;;;;;4976451;28;20038;-67
2023/05/06 00:59:16;;;;;;;6.50;4.78;;;;;;;;;;4975906;28;20037;-68
2023/05/06 01:01:42;;;;;;;6.78;4.80;;;;;;;;;;4958612;28;20038;-67
2023/05/06 01:04:07;;;;;;;5.68;4.13;;;;;;;;;;4965205;28;20085;-67
2023/05/06 01:07:18;;;;;;;10.82;5.15;;;;;;;;;;4948317;28;20122;-70
2023/05/06 01:09:56;;;;;;;5.55;4.38;;;;;;;;;;4936849;28;20039;-68
2023/05/06 01:12:36;;;;;;;6.65;5.32;;;;;;;;;;4967839;28;20034;-69
2023/05/06 01:15:25;;;;;;;10.98;5.38;;;;;;;;;;4936313;28;20094;-68
2023/05/06 01:17:53;;;;;;;5.15;3.42;;;;;;;;;;4960450;28;20133;-69
2023/05/06 01:20:20;;;;;;;5.20;3.67;;;;;;;;;;4964415;28;20038;-68
2023/05/06 01:22:48;;;;;;;4.15;2.75;;;;;;;;;;4977557;28;20137;-68
2023/05/06 01:25:20;;;;;;;4.97;3.50;;;;;;;;;;4958903;28;20038;-68
2023/05/06 01:27:46;;;;;;;3.95;2.85;;;;;;;;;;4979013;28;20430;-67
2023/05/06 01:30:13;;;;;;;4.10;3.03;;;;;;;;;;4976377;28;20044;-69
2023/05/06 01:33:02;;;;;;;3.85;2.75;;;;;;;;;;4977973;28;20696;-67
2023/05/06 01:35:48;;;;;;;3.97;2.88;;;;;;;;;;4963658;28;20555;-68
2023/05/06 01:38:36;;;;;;;3.65;2.53;;;;;;;;;;4944809;28;20110;-69
2023/05/06 01:41:02;;;;;;;4.38;3.00;;;;;;;;;;4968288;28;20192;-70
2023/05/06 01:43:33;;;;;;;4.53;3.30;;;;;;;;;;4977325;28;20034;-68
2023/05/06 01:45:59;;;;;;;5.40;3.83;;;;;;;;;;4948161;28;20462;-67
2023/05/06 01:48:29;;;;;;;5.35;4.03;;;;;;;;;;4960454;28;20034;-69
2023/05/06 01:50:54;;;;;;;4.30;3.35;;;;;;;;;;4971945;28;20498;-68
2023/05/06 01:53:20;;;;;;;5.15;3.80;;;;;;;;;;4959607;28;20048;-68
2023/05/06 01:55:47;;;;;;;5.20;3.97;;;;;;;;;;4972418;28;20046;-68
2023/05/06 01:58:13;;;;;;;5.20;3.50;;;;;;;;;;4976600;28;20053;-69
2023/05/06 02:00:38;;;;;;;4.85;3.50;;;;;;;;;;4969199;28;20042;-69
2023/05/06 02:03:04;;;;;;;4.82;3.58;;;;;;;;;;4965318;28;20038;-70
2023/05/06 02:05:29;;;;;;;5.90;4.00;;;;;;;;;;4974426;28;20034;-68
2023/05/06 02:07:55;;;;;;;5.15;4.00;;;;;;;;;;4973706;28;20039;-69
2023/05/06 02:10:20;;;;;;;5.43;3.80;;;;;;;;;;4977012;28;20487;-70
2023/05/06 02:12:46;;;;;;;5.78;3.75;;;;;;;;;;4967848;28;20068;-68
2023/05/06 02:15:11;;;;;;;5.00;4.00;;;;;;;;;;4970506;28;20581;-68
2023/05/06 02:17:37;;;;;;;5.03;3.70;;;;;;;;;;4964069;28;20062;-68
2023/05/06 02:20:02;;;;;;;5.63;4.20;;;;;;;;;;4959206;28;20042;-70
2023/05/06 02:22:28;;;;;;;6.22;4.15;;;;;;;;;;4968996;28;20503;-69
2023/05/06 02:24:53;;;;;;;3.83;2.60;;;;;;;;;;4976972;28;20034;-68
2023/05/06 02:27:18;;;;;;;6.03;4.28;;;;;;;;;;4966566;28;20157;-68
2023/05/06 02:29:44;;;;;;;6.43;5.05;;;;;;;;;;4966770;28;20096;-70
2023/05/06 02:32:10;;;;;;;9.00;5.80;;;;;;;;;;4959345;28;20679;-68
2023/05/06 02:34:35;;;;;;;7.57;5.43;;;;;;;;;;4976340;28;20041;-68
2023/05/06 02:37:00;;;;;;;11.90;6.50;;;;;;;;;;4966216;28;20073;-70
2023/05/06 02:39:26;;;;;;;6.32;3.92;;;;;;;;;;4970359;28;20038;-68
2023/05/06 02:41:51;;;;;;;7.78;6.35;;;;;;;;;;4962136;28;20457;-69
2023/05/06 02:44:16;;;;;;;8.18;5.75;;;;;;;;;;4967953;28;20042;-68
2023/05/06 02:46:42;;;;;;;7.50;5.47;;;;;;;;;;4971952;28;20124;-68
2023/05/06 02:49:08;;;;;;;7.40;5.70;;;;;;;;;;4974250;28;20050;-69
2023/05/06 02:51:33;;;;;;;6.80;5.10;;;;;;;;;;4977047;28;20038;-68
2023/05/06 02:53:58;;;;;;;7.05;4.97;;;;;;;;;;4973551;28;20038;-68
2023/05/06 02:56:24;;;;;;;7.13;5.07;;;;;;;;;;4962639;28;20049;-67
2023/05/06 02:58:50;;;;;;;7.65;5.32;;;;;;;;;;4966330;28;20100;-68
2023/05/06 03:01:15;;;;;;;7.30;5.20;;;;;;;;;;4973571;28;20499;-68
2023/05/06 03:03:40;;;;;;;8.02;5.03;;;;;;;;;;4974931;28;20050;-69
2023/05/06 03:06:06;;;;;;;7.57;5.60;;;;;;;;;;4975063;28;20034;-69
2023/05/06 03:08:31;;;;;;;7.07;5.55;;;;;;;;;;4973788;28;20034;-70
2023/05/06 03:10:57;;;;;;;7.38;5.07;;;;;;;;;;4961465;28;20245;-68
2023/05/06 03:13:22;;;;;;;8.05;5.82;;;;;;;;;;4970786;28;20033;-68
2023/05/06 03:15:52;;;;;;;7.35;5.35;;;;;;;;;;4973189;28;20042;-71
2023/05/06 03:18:18;;;;;;;6.68;5.65;;;;;;;;;;4973678;28;20046;-69
2023/05/06 03:20:43;;;;;;;9.60;5.82;;;;;;;;;;4976898;28;20033;-69
2023/05/06 03:23:08;;;;;;;7.70;4.68;;;;;;;;;;4973980;28;20030;-70
2023/05/06 03:25:34;;;;;;;7.63;4.97;;;;;;;;;;4972999;28;20111;-68
2023/05/06 03:27:59;;;;;;;11.23;4.82;;;;;;;;;;4963880;28;20519;-70
2023/05/06 03:30:25;;;;;;;10.98;4.80;;;;;;;;;;4974650;28;20046;-68
2023/05/06 03:32:50;;;;;;;5.80;4.40;;;;;;;;;;4972464;28;20042;-68
2023/05/06 03:35:16;;;;;;;6.57;4.75;;;;;;;;;;4979345;28;20088;-71
2023/05/06 03:37:41;;;;;;;6.60;4.50;;;;;;;;;;4963951;28;20049;-68
2023/05/06 03:40:07;;;;;;;6.25;5.15;;;;;;;;;;4971487;28;20038;-70
2023/05/06 03:42:32;;;;;;;6.32;3.97;;;;;;;;;;4970746;28;20050;-67
2023/05/06 03:44:58;;;;;;;7.05;4.47;;;;;;;;;;4969414;28;20084;-69
2023/05/06 03:47:23;;;;;;;6.43;4.45;;;;;;;;;;4972911;28;20049;-69
2023/05/06 03:49:50;;;;;;;6.35;4.60;;;;;;;;;;4976267;28;20038;-68
2023/05/06 03:52:15;;;;;;;6.47;4.50;;;;;;;;;;4965615;28;20185;-69
2023/05/06 03:54:40;;;;;;;5.80;4.20;;;;;;;;;;4963990;28;20582;-68
2023/05/06 03:57:06;;;;;;;6.53;4.28;;;;;;;;;;4977310;28;20084;-68
2023/05/06 03:59:31;;;;;;;6.22;4.65;;;;;;;;;;4974925;28;20033;-70
2023/05/06 04:01:56;;;;;;;6.63;4.47;;;;;;;;;;4975102;28;20048;-68
2023/05/06 04:04:22;;;;;;;5.68;4.30;;;;;;;;;;4975602;28;20038;-70
2023/05/06 04:06:47;;;;;;;5.70;4.40;;;;;;;;;;4966846;28;20045;-69
2023/05/06 04:09:13;;;;;;;5.88;3.95;;;;;;;;;;4966192;28;20053;-68
2023/05/06 04:11:38;;;;;;;7.50;4.10;;;;;;;;;;4971113;28;20077;-70
2023/05/06 04:14:03;;;;;;;5.47;3.88;;;;;;;;;;4969058;28;20578;-69
2023/05/06 04:16:29;;;;;;;5.88;4.03;;;;;;;;;;4971971;28;20058;-70
2023/05/06 04:18:54;;;;;;;5.93;3.83;;;;;;;;;;4968607;28;20046;-69
2023/05/06 04:21:20;;;;;;;5.03;3.58;;;;;;;;;;4949428;28;20121;-69
2023/05/06 04:23:45;;;;;;;5.22;3.92;;;;;;;;;;4965296;28;20042;-71
2023/05/06 04:26:10;;;;;;;5.10;3.97;;;;;;;;;;4975429;28;20527;-69
2023/05/06 04:28:36;;;;;;;4.80;3.63;;;;;;;;;;4980155;28;20046;-70
2023/05/06 04:31:01;;;;;;;5.63;3.95;;;;;;;;;;4972795;28;20062;-68
2023/05/06 04:33:28;;;;;;;5.25;3.40;;;;;;;;;;4978234;28;20097;-71
2023/05/06 04:35:53;;;;;;;5.43;3.65;;;;;;;;;;4962895;28;20120;-69
2023/05/06 04:38:24;;;;;;;4.40;2.58;;;;;;;;;;4962774;28;20212;-71
2023/05/06 04:40:50;;;;;;;4.93;3.45;;;;;;;;;;4980930;28;20628;-71
2023/05/06 04:43:15;;;;;;;4.82;3.20;;;;;;;;;;4974682;28;20125;-69
2023/05/06 04:45:48;;;;;;;4.65;3.40;;;;;;;;;;4973695;28;20069;-70
2023/05/06 04:48:23;;;;;;;4.28;3.33;;;;;;;;;;4964797;28;20045;-70
2023/05/06 04:50:49;;;;;;;4.43;2.90;;;;;;;;;;4967085;28;20042;-71
2023/05/06 04:53:15;;;;;;;4.03;2.90;;;;;;;;;;4972383;28;20121;-68
2023/05/06 04:55:41;;;;;;;4.00;2.80;;;;;;;;;;4980460;28;20068;-68
2023/05/06 04:58:06;;;;;;;4.85;2.80;;;;;;;;;;4967700;28;20105;-70
2023/05/06 05:00:32;;;;;;;3.65;2.53;;;;;;;;;;4962375;28;20068;-71
2023/05/06 05:02:58;;;;;;;4.60;2.90;;;;;;;;;;4966276;28;20563;-66
2023/05/06 05:05:24;;;;;;;3.90;2.28;;;;;;;;;;4955250;28;20169;-67
2023/05/06 05:07:50;;;;;;;3.53;2.30;;;;;;;;;;4959469;28;20046;-67
2023/05/06 05:10:15;;;;;;;4.28;2.95;;;;;;;;;;4974104;28;20034;-68
2023/05/06 05:12:41;;;;;;;4.22;2.50;;;;;;;;;;4972436;28;20038;-66
2023/05/06 05:15:06;;;;;;;4.03;2.50;;;;;;;;;;4952573;28;20042;-68
2023/05/06 05:17:32;;;;;;;5.75;2.60;;;;;;;;;;4958270;28;20728;-69
2023/05/06 05:19:57;;;;;;;3.58;2.38;;;;;;;;;;4947518;28;20121;-68
2023/05/06 05:22:23;;;;;;;3.60;2.38;;;;;;;;;;4956236;28;20050;-71
2023/05/06 05:24:48;;;;;;;4.10;2.45;;;;;;;;;;4967136;28;20050;-69
2023/05/06 05:27:13;;;;;;;3.63;2.47;;;;;;;;;;4971832;28;20068;-68
2023/05/06 05:29:39;;;;;;;3.92;2.72;;;;;;;;;;4961699;28;20049;-70
2023/05/06 05:32:04;;;;;;;3.78;2.30;;;;;;;;;;4961911;28;20045;-69
2023/05/06 05:34:30;;;;;;;4.63;2.83;;;;;;;;;;4967954;28;20121;-71
2023/05/06 05:36:58;;;;;;;4.50;2.65;;;;;;;;;;4973664;28;20046;-68
2023/05/06 05:39:24;;;;;;;3.53;2.30;;;;;;;;;;4970268;28;20129;-70
2023/05/06 05:41:49;;;;;;;5.30;3.42;;;;;;;;;;4971621;28;20125;-69
2023/05/06 05:44:15;;;;;;;3.33;2.38;;;;;;;;;;4958997;28;20636;-71
2023/05/06 05:46:42;;;;;;;3.85;2.92;;;;;;;;;;4963929;28;20059;-71
2023/05/06 05:49:08;;;;;;;3.80;2.40;;;;;;;;;;4958152;28;20042;-68
2023/05/06 05:51:33;;;;;;;5.70;3.72;;;;;;;;;;4967288;28;20038;-70
2023/05/06 05:53:59;;;;;;;6.65;3.90;;;;;;;;;;4969068;28;20049;-69
2023/05/06 05:56:24;;;;;;;6.07;4.20;;;;;;;;;;4975947;28;20073;-69
2023/05/06 05:58:50;;;;;;;6.95;4.30;;;;;;;;;;4962125;28;20110;-69
2023/05/06 06:01:16;;;;;;;6.50;4.53;;;;;;;;;;4957833;28;20054;-67
2023/05/06 06:03:43;;;;;;;6.38;4.00;;;;;;;;;;4961448;28;20045;-67
2023/05/06 06:06:10;;;;;;;6.28;3.90;;;;;;;;;;4936768;28;20038;-69
2023/05/06 06:08:36;;;;;;;6.68;4.05;;;;;;;;;;4963196;28;20038;-68
2023/05/06 06:11:03;;;;;;;5.88;4.38;;;;;;;;;;4949246;28;20406;-67
2023/05/06 06:13:29;;;;;;;6.22;3.88;;;;;;;;;;4964653;28;20065;-67
2023/05/06 06:15:58;;;;;;;6.93;4.40;;;;;;;;;;4970820;28;20758;-71
2023/05/06 06:18:23;;;;;;;6.15;4.18;;;;;;;;;;4973545;28;20038;-74
2023/05/06 06:20:49;;;;;;;6.50;4.43;;;;;;;;;;4979991;28;20915;-70
2023/05/06 06:23:14;;;;;;;5.80;4.20;;;;;;;;;;4973417;28;20035;-70
2023/05/06 06:25:40;;;;;;;5.72;4.10;;;;;;;;;;4964128;28;20731;-72
2023/05/06 06:28:05;;;;;;;6.18;4.15;;;;;;;;;;4961337;28;20042;-71
2023/05/06 06:30:31;;;;;;;6.70;4.32;;;;;;;;;;4965075;28;20051;-68
2023/05/06 06:33:00;;;;;;;5.35;3.60;;;;;;;;;;4961045;28;20034;-71
2023/05/06 06:35:26;;;;;;;6.00;3.88;;;;;;;;;;4975928;28;20049;-68
2023/05/06 06:37:52;;;;;;;5.38;3.63;;;;;;;;;;4968349;28;20820;-70
2023/05/06 06:40:17;;;;;;;5.18;3.55;;;;;;;;;;4964795;28;20177;-71
2023/05/06 06:42:43;;;;;;;5.85;3.50;;;;;;;;;;4968477;28;20152;-70
2023/05/06 06:45:09;;;;;;;5.80;3.65;;;;;;;;;;4975401;28;20045;-68
2023/05/06 06:47:35;;;;;;;5.28;3.30;;;;;;;;;;4960605;28;20037;-68
2023/05/06 06:50:00;;;;;;;5.35;3.33;;;;;;;;;;4975134;28;20096;-68
2023/05/06 06:52:26;;;;;;;6.50;3.25;;;;;;;;;;4966669;28;20113;-68
2023/05/06 06:54:51;;;;;;;4.40;2.85;;;;;;;;;;4951140;28;20045;-68
2023/05/06 06:57:17;;;;;;;4.22;3.05;;;;;;;;;;4976854;28;20054;-68
2023/05/06 06:59:43;;;;;;;5.30;2.90;;;;;;;;;;4977252;28;20080;-69
2023/05/06 07:02:08;;;;;;;6.65;3.97;;;;;;;;;;4971788;28;20054;-68
2023/05/06 07:04:34;;;;;;;4.57;3.15;;;;;;;;;;4977558;28;20038;-68
2023/05/06 07:06:59;;;;;;;3.85;2.63;;;;;;;;;;4962815;28;20040;-68
2023/05/06 07:09:25;;;;;;;4.60;3.05;;;;;;;;;;4962550;28;20048;-67
2023/05/06 07:11:50;;;;;;;4.63;3.00;;;;;;;;;;4976266;28;20037;-68
2023/05/06 07:14:15;;;;;;;4.05;2.72;;;;;;;;;;4978082;28;20041;-68
2023/05/06 07:16:41;;;;;;;4.82;2.88;;;;;;;;;;4970551;28;20861;-67
2023/05/06 07:19:06;;;;;;;5.93;2.83;;;;;;;;;;4974485;28;20041;-68
2023/05/06 07:21:32;;;;;;;5.45;3.08;;;;;;;;;;4967502;28;20041;-67
2023/05/06 07:23:58;;;;;;;4.43;2.72;;;;;;;;;;4961788;28;20048;-67
2023/05/06 07:26:23;;;;;;;5.88;3.90;;;;;;;;;;4980686;28;20099;-69
2023/05/06 07:28:48;;;;;;;5.00;3.20;;;;;;;;;;4972832;28;20042;-69
2023/05/06 07:31:15;;;;;;;5.82;3.60;;;;;;;;;;4970658;28;20042;-68
2023/05/06 07:33:40;;;;;;;4.20;3.05;;;;;;;;;;4970459;28;20073;-67
2023/05/06 07:36:07;;;;;;;6.03;3.53;;;;;;;;;;4966613;28;20042;-68
2023/05/06 07:38:32;;;;;;;5.63;3.25;;;;;;;;;;4967915;28;20041;-68
2023/05/06 07:40:57;;;;;;;4.90;3.00;;;;;;;;;;4969224;28;20419;-68
2023/05/06 07:43:23;;;;;;;6.15;3.45;;;;;;;;;;4972672;28;20054;-67
2023/05/06 07:45:48;;;;;;;5.53;3.63;;;;;;;;;;4972274;28;20043;-68
2023/05/06 07:48:14;;;;;;;5.40;3.45;;;;;;;;;;4963940;28;20046;-67
2023/05/06 07:50:39;;;;;;;4.25;2.47;;;;;;;;;;4959552;28;20050;-68
2023/05/06 07:53:05;;;;;;;3.72;1.88;;;;;;;;;;4967041;28;20041;-67
2023/05/06 07:55:30;;;;;;;3.70;2.50;;;;;;;;;;4977639;28;20056;-67
2023/05/06 07:57:55;;;;;;;5.10;3.03;;;;;;;;;;4960648;28;20151;-68
2023/05/06 08:00:21;;;;;;;4.63;3.20;;;;;;;;;;4956497;28;20045;-68
2023/05/06 08:02:47;;;;;;;5.35;3.72;;;;;;;;;;4962807;28;20030;-67
2023/05/06 08:05:13;;;;;;;5.40;3.03;;;;;;;;;;4959512;28;20042;-68
2023/05/06 08:07:42;;;;;;;5.05;3.22;;;;;;;;;;4958260;28;20049;-67
2023/05/06 08:10:08;;;;;;;5.07;2.70;;;;;;;;;;4955806;28;20090;-67
2023/05/06 08:12:35;;;;;;;4.38;3.08;;;;;;;;;;4962009;28;20042;-67
2023/05/06 08:15:01;;;;;;;5.38;3.15;;;;;;;;;;4967616;28;20042;-67
2023/05/06 08:17:26;;;;;;;3.80;2.40;;;;;;;;;;4962958;28;20046;-66
2023/05/06 08:19:52;;;;;;;4.75;2.67;;;;;;;;;;4941908;28;20418;-67
2023/05/06 08:22:17;;;;;;;3.97;2.58;;;;;;;;;;4977461;28;20045;-68
2023/05/06 08:24:43;;;;;;;5.38;2.75;;;;;;;;;;4974408;28;20042;-67
2023/05/06 08:27:08;;;;;;;5.93;3.00;;;;;;;;;;4977802;28;20522;-67
2023/05/06 08:29:34;;;;;;;3.90;2.35;;;;;;;;;;4963126;28;20042;-67
2023/05/06 08:32:00;;;;;;;2.05;1.42;;;;;;;;;;4970201;28;20046;-68
2023/05/06 08:34:25;;;;;;;2.60;1.83;;;;;;;;;;4967308;28;20045;-66
2023/05/06 08:36:50;;;;;;;3.75;2.30;;;;;;;;;;4973909;28;20042;-68
2023/05/06 08:39:17;;;;;;;3.95;2.67;;;;;;;;;;4965815;28;20046;-67
2023/05/06 08:41:47;;;;;;;3.83;2.13;;;;;;;;;;4971347;28;20060;-67
2023/05/06 08:44:16;;;;;;;4.85;2.40;;;;;;;;;;4960990;28;20101;-67
2023/05/06 08:46:41;;;;;;;5.10;2.55;;;;;;;;;;4922222;28;20112;-68
2023/05/06 08:49:08;;;;;;;3.78;2.50;;;;;;;;;;4928163;28;20715;-66
2023/05/06 08:51:34;;;;;;;3.38;2.35;;;;;;;;;;4970295;28;20054;-67
2023/05/06 08:54:03;;;;;;;2.65;1.90;;;;;;;;;;4975756;28;20053;-66
2023/05/06 08:56:32;;;;;;;2.20;1.58;;;;;;;;;;4963107;28;20038;-67
2023/05/06 08:58:58;;;;;;;3.92;2.08;;;;;;;;;;4955251;28;20632;-67
2023/05/06 09:01:26;;;;;;;4.07;2.03;;;;;;;;;;4958854;28;20105;-67
2023/05/06 09:03:53;;;;;;;4.50;2.40;;;;;;;;;;4940667;28;20038;-66
2023/05/06 09:06:18;;;;;;;3.17;2.00;;;;;;;;;;4968022;28;20803;-66
2023/05/06 09:08:43;;;;;;;2.25;1.50;;;;;;;;;;4957186;28;20038;-67
2023/05/06 09:11:20;;;;;;;4.13;2.05;;;;;;;;;;4961255;28;20041;-66
2023/05/06 09:13:45;;;;;;;2.65;1.77;;;;;;;;;;4945468;28;20055;-66
2023/05/06 09:16:26;;;;;;;4.18;2.47;;;;;;;;;;4977072;28;20633;-67
2023/05/06 09:18:51;;;;;;;2.75;1.90;;;;;;;;;;4968844;28;20042;-67
2023/05/06 09:21:16;;;;;;;4.53;1.90;;;;;;;;;;4974325;28;20045;-67
2023/05/06 09:23:42;;;;;;;2.33;1.73;;;;;;;;;;4971498;28;20069;-67
2023/05/06 09:26:08;;;;;;;3.33;1.73;;;;;;;;;;4952065;28;20685;-66
2023/05/06 09:28:33;;;;;;;3.10;2.28;;;;;;;;;;4967213;28;20089;-67
2023/05/06 09:30:59;;;;;;;2.75;1.85;;;;;;;;;;4947426;28;20459;-67
2023/05/06 09:33:26;;;;;;;2.47;1.77;;;;;;;;;;4952198;28;20046;-67
2023/05/06 09:35:52;;;;;;;5.18;2.20;;;;;;;;;;4959286;28;20462;-68
2023/05/06 09:38:17;;;;;;;2.88;1.85;;;;;;;;;;4972787;28;20052;-68
2023/05/06 09:40:42;;;;;;;4.15;1.67;;;;;;;;;;4946664;28;20447;-67
2023/05/06 09:43:09;;;;;;;3.88;1.60;;;;;;;;;;4973348;28;20577;-68
2023/05/06 09:45:35;;;;;;;2.55;1.40;;;;;;;;;;4972342;28;20045;-66
2023/05/06 09:48:01;;;;;;;3.50;1.50;;;;;;;;;;4973045;28;20038;-67
2023/05/06 09:50:27;;;;;;;3.10;1.60;;;;;;;;;;4966550;28;20061;-67
2023/05/06 09:52:53;;;;;;;2.97;1.42;;;;;;;;;;4963911;28;20038;-67
2023/05/06 09:55:20;;;;;;;2.10;1.42;;;;;;;;;;4959932;28;20061;-65
2023/05/06 09:57:49;;;;;;;3.85;1.92;;;;;;;;;;4949663;28;20053;-66
2023/05/06 10:00:15;;;;;;;2.45;1.63;;;;;;;;;;4949465;28;20045;-66
2023/05/06 10:02:43;;;;;;;2.97;1.65;;;;;;;;;;4978800;28;20132;-67
2023/05/06 10:05:09;;;;;;;2.30;1.58;;;;;;;;;;4974153;28;20057;-66
2023/05/06 10:07:35;;;;;;;2.80;1.67;;;;;;;;;;4951259;28;20129;-66
2023/05/06 10:10:06;;;;;;;3.20;1.70;;;;;;;;;;4958963;28;20046;-66
2023/05/06 10:12:31;;;;;;;12.13;1.77;;;;;;;;;;4965255;28;20554;-66
2023/05/06 10:14:57;;;;;;;4.43;1.50;;;;;;;;;;4959757;28;20038;-65
2023/05/06 10:17:25;;;;;;;2.55;1.50;;;;;;;;;;4973547;28;20046;-66
2023/05/06 10:19:56;;;;;;;1.75;1.20;;;;;;;;;;4955600;28;20938;-66
2023/05/06 10:22:34;;;;;;;2.95;1.40;;;;;;;;;;4957508;28;20091;-67
2023/05/06 10:25:06;;;;;;;2.17;1.08;;;;;;;;;;4973210;28;20053;-66
2023/05/06 10:27:36;;;;;;;2.20;1.00;;;;;;;;;;4974834;28;20053;-66
2023/05/06 10:30:01;;;;;;;3.50;1.17;;;;;;;;;;4961299;28;20045;-66
2023/05/06 10:32:31;;;;;;;3.03;1.30;;;;;;;;;;4950850;28;20037;-65
2023/05/06 10:35:07;;;;;;;3.05;1.50;;;;;;;;;;4957419;28;20038;-65
2023/05/06 10:37:33;;;;;;;2.28;1.40;;;;;;;;;;4971516;28;20037;-66
2023/05/06 10:39:59;;;;;;;5.60;1.70;;;;;;;;;;4960209;28;20050;-67
2023/05/06 10:42:32;;;;;;;2.00;1.40;;;;;;;;;;4973484;28;20045;-65
2023/05/06 10:45:02;;;;;;;3.10;1.75;;;;;;;;;;4938888;28;20097;-66
2023/05/06 10:47:56;;;;;;;2.17;1.23;;;;;;;;;;4973273;28;20041;-66
2023/05/06 10:50:24;;;;;;;1.50;1.00;;;;;;;;;;4951270;28;20043;-66
2023/05/06 10:52:54;;;;;;;3.67;1.20;;;;;;;;;;4953118;28;20519;-66
2023/05/06 10:55:26;;;;;;;1.80;1.02;;;;;;;;;;4933611;28;20134;-65
2023/05/06 10:57:56;;;;;;;1.52;1.00;;;;;;;;;;4972961;28;20632;-66
2023/05/06 11:00:22;;;;;;;1.05;0.77;;;;;;;;;;4956849;28;20042;-66
2023/05/06 11:02:56;;;;;;;1.20;0.70;;;;;;;;;;4968944;28;20056;-67
2023/05/06 11:05:22;;;;;;;1.33;0.80;;;;;;;;;;4970424;28;20061;-66
2023/05/06 11:07:52;;;;;;;1.52;0.70;;;;;;;;;;4950452;28;20042;-65
2023/05/06 11:10:33;;;;;;;0.60;0.60;;;;;;;;;;4923532;28;20112;-67
2023/05/06 11:13:17;;;;;;;1.60;0.98;;;;;;;;;;4968733;28;20069;-67
2023/05/06 11:15:45;;;;;;;1.20;0.80;;;;;;;;;;4936680;28;20042;-66
2023/05/06 11:18:35;;;;;;;0.75;0.65;;;;;;;;;;4940545;28;20623;-66
2023/05/06 11:21:01;;;;;;;1.23;1.05;;;;;;;;;;4947021;28;20057;-66
2023/05/06 11:23:42;;;;;;;0.88;0.77;;;;;;;;;;4937563;28;20463;-65
2023/05/06 11:26:11;;;;;;;0.88;0.70;;;;;;;;;;4961084;28;20038;-67
2023/05/06 11:28:38;;;;;;;2.15;0.90;;;;;;;;;;4941961;28;20935;-66
2023/05/06 11:31:03;;;;;;;1.90;0.70;;;;;;;;;;4931731;28;20078;-66
2023/05/06 11:33:34;;;;;;;2.63;0.60;;;;;;;;;;4962253;28;20042;-65
2023/05/06 11:36:00;;;;;;;2.38;1.02;;;;;;;;;;4968852;28;20578;-66
2023/05/06 11:38:37;;;;;;;0.82;0.60;;;;;;;;;;4947081;28;20042;-66
2023/05/06 11:41:03;;;;;;;0.90;0.60;;;;;;;;;;4908903;28;20042;-65
2023/05/06 11:43:28;;;;;;;1.35;0.70;;;;;;;;;;4947793;28;20142;-64
2023/05/06 11:45:53;;;;;;;2.78;0.80;;;;;;;;;;4959632;28;20038;-65
2023/05/06 11:48:19;;;;;;;1.88;0.80;;;;;;;;;;4968502;28;20105;-66
2023/05/06 11:50:46;;;;;;;1.30;0.77;;;;;;;;;;4952449;28;20097;-63
2023/05/06 11:53:18;;;;;;;0.82;0.50;;;;;;;;;;4951578;28;20507;-65
2023/05/06 11:55:45;;;;;;;0.88;0.60;;;;;;;;;;4936368;28;20487;-66
2023/05/06 11:58:23;;;;;;;1.15;0.70;;;;;;;;;;4939687;28;20041;-66
2023/05/06 12:00:52;;;;;;;1.70;0.80;;;;;;;;;;4931717;28;20046;-64
2023/05/06 12:03:18;;;;;;;1.23;0.60;;;;;;;;;;4963478;28;20558;-65
2023/05/06 12:05:46;;;;;;;1.00;0.70;;;;;;;;;;4952079;28;20145;-65
2023/05/06 12:08:12;;;;;;;1.75;0.70;;;;;;;;;;4949400;28;20048;-65
2023/05/06 12:10:38;;;;;;;2.00;0.70;;;;;;;;;;4957512;28;20077;-66
2023/05/06 12:13:05;;;;;;;1.48;0.57;;;;;;;;;;4953508;28;20030;-66
2023/05/06 12:15:32;;;;;;;1.73;0.60;;;;;;;;;;4946601;28;20074;-65
2023/05/06 12:17:58;;;;;;;1.13;0.70;;;;;;;;;;4953359;28;20057;-65
2023/05/06 12:20:23;;;;;;;2.10;0.70;;;;;;;;;;4947923;28;20042;-65
2023/05/06 12:23:08;;;;;;;0.60;0.50;;;;;;;;;;4976092;28;20066;-65
2023/05/06 12:25:33;;;;;;;1.15;0.60;;;;;;;;;;4968982;28;20041;-64
2023/05/06 12:27:59;;;;;;;1.38;0.70;;;;;;;;;;4958713;28;20190;-64
2023/05/06 12:30:29;;;;;;;2.03;0.50;;;;;;;;;;4950120;28;20542;-66
2023/05/06 12:32:56;;;;;;;0.90;0.55;;;;;;;;;;4936742;28;20043;-64
2023/05/06 12:35:29;;;;;;;0.60;0.60;;;;;;;;;;4960859;28;20034;-66
2023/05/06 12:37:56;;;;;;;1.50;0.63;;;;;;;;;;4977757;28;20080;-64
2023/05/06 12:40:21;;;;;;;0.50;0.43;;;;;;;;;;4965153;28;20038;-65
2023/05/06 12:42:54;;;;;;;1.38;0.60;;;;;;;;;;4936513;28;20031;-64
2023/05/06 12:45:20;;;;;;;2.03;0.50;;;;;;;;;;4939168;28;20056;-64
2023/05/06 12:48:00;;;;;;;0.40;0.30;;;;;;;;;;4977648;28;20086;-64
2023/05/06 12:50:45;;;;;;;1.02;0.40;;;;;;;;;;4979402;28;20034;-65
2023/05/06 12:53:14;;;;;;;0.32;0.30;;;;;;;;;;4979912;28;20529;-65
2023/05/06 12:55:44;;;;;;;1.35;0.43;;;;;;;;;;4939876;28;20045;-65
2023/05/06 12:58:17;;;;;;;0.43;0.40;;;;;;;;;;4973406;28;20039;-65
2023/05/06 13:00:42;;;;;;;1.27;0.40;;;;;;;;;;4954917;28;20043;-65
2023/05/06 13:03:10;;;;;;;0.90;0.50;;;;;;;;;;4958228;28;20043;-65
2023/05/06 13:05:35;;;;;;;0.80;0.60;;;;;;;;;;4935507;28;20047;-64
2023/05/06 13:08:01;;;;;;;1.23;0.47;;;;;;;;;;4944910;28;20034;-65
2023/05/06 13:10:27;;;;;;;1.23;0.60;;;;;;;;;;4960056;28;20042;-64
2023/05/06 13:12:52;;;;;;;1.33;0.68;;;;;;;;;;4959778;28;20038;-66
2023/05/06 13:15:17;;;;;;;0.65;0.43;;;;;;;;;;4952767;28;20057;-66
2023/05/06 13:17:43;;;;;;;0.85;0.40;;;;;;;;;;4969825;28;20062;-66
2023/05/06 13:20:09;;;;;;;0.82;0.60;;;;;;;;;;4969300;28;20088;-64
2023/05/06 13:22:35;;;;;;;1.05;0.60;;;;;;;;;;4944058;28;20494;-66
2023/05/06 13:25:00;;;;;;;1.40;0.50;;;;;;;;;;4976438;28;20038;-64
2023/05/06 13:27:29;;;;;;;1.48;0.70;;;;;;;;;;4969378;28;21329;-65
2023/05/06 13:29:54;;;;;;;0.82;0.60;;;;;;;;;;4962824;28;20694;-64
2023/05/06 13:32:20;;;;;;;0.60;0.57;;;;;;;;;;4963103;28;20035;-66
2023/05/06 13:34:45;;;;;;;0.63;0.45;;;;;;;;;;4975284;28;20084;-66
2023/05/06 13:37:10;;;;;;;1.33;0.77;;;;;;;;;;4956495;28;20073;-65
2023/05/06 13:39:36;;;;;;;1.13;0.65;;;;;;;;;;4952419;28;20066;-65
2023/05/06 13:42:02;;;;;;;1.27;0.60;;;;;;;;;;4965379;28;20155;-66
2023/05/06 13:44:28;;;;;;;2.75;1.10;;;;;;;;;;4978774;28;20037;-65
2023/05/06 13:46:53;;;;;;;0.80;0.50;;;;;;;;;;4976231;28;20034;-67
2023/05/06 13:49:18;;;;;;;1.25;0.85;;;;;;;;;;4976074;28;20038;-66
2023/05/06 13:51:44;;;;;;;1.00;0.90;;;;;;;;;;4958470;28;20066;-67
2023/05/06 13:54:09;;;;;;;1.25;0.60;;;;;;;;;;4974572;28;20134;-66
2023/05/06 13:56:35;;;;;;;8.43;0.85;;;;;;;;;;4964581;28;20041;-65
2023/05/06 13:59:00;;;;;;;1.02;0.60;;;;;;;;;;4978248;28;20069;-66
2023/05/06 14:01:25;;;;;;;2.00;0.82;;;;;;;;;;4959591;28;20045;-65
2023/05/06 14:03:51;;;;;;;1.80;0.68;;;;;;;;;;4971080;28;20042;-65
2023/05/06 14:06:17;;;;;;;0.90;0.50;;;;;;;;;;4925706;28;20074;-66
2023/05/06 14:08:42;;;;;;;1.88;0.73;;;;;;;;;;4960274;28;20125;-65
2023/05/06 14:11:10;;;;;;;1.23;0.60;;;;;;;;;;4959869;28;20042;-65
2023/05/06 14:13:36;;;;;;;1.15;0.80;;;;;;;;;;4957280;28;20431;-64
2023/05/06 14:16:02;;;;;;;1.23;0.50;;;;;;;;;;4973152;28;20034;-64
2023/05/06 14:18:28;;;;;;;1.80;0.90;;;;;;;;;;4956685;28;20577;-65
2023/05/06 14:20:53;;;;;;;1.20;0.65;;;;;;;;;;4976530;28;20034;-65
2023/05/06 14:23:19;;;;;;;2.25;0.80;;;;;;;;;;4973689;28;20609;-66
2023/05/06 14:25:44;;;;;;;2.28;1.13;;;;;;;;;;4964789;28;20034;-65
2023/05/06 14:28:11;;;;;;;1.20;0.70;;;;;;;;;;4962056;28;20511;-65
2023/05/06 14:30:37;;;;;;;0.50;0.50;;;;;;;;;;4955235;28;20035;-66
2023/05/06 14:33:03;;;;;;;1.70;0.70;;;;;;;;;;4934094;28;20046;-67
2023/05/06 14:35:28;;;;;;;0.95;0.70;;;;;;;;;;4973737;28;20035;-65
2023/05/06 14:37:54;;;;;;;2.80;0.73;;;;;;;;;;4956337;28;20459;-65
2023/05/06 14:40:19;;;;;;;1.13;0.68;;;;;;;;;;4952523;28;20042;-65
2023/05/06 14:42:45;;;;;;;1.10;0.60;;;;;;;;;;4970420;28;20529;-66